Hove, Belgium
Current Conditions -  °F | °C
As of 10:50 AM on Friday 31 Oct 2014 (Local Time) from EBAW Reporting Station
Clear Clear  
Wind Chill: 14°   Ceiling: Unl
Heat Index: 14°   Visibility: 6mi
Dew Point: 11°   Wind: 3mph
Humidity: 82%   Direction: 150°SSE
Pressure: 30.18"   Gusts: NA
Location:  51.15°N, 4.47°E
Report Text: EBAW 310950Z 15003KT 120V180 CAVOK 14/11 Q1022 NOSIG
Loading
Personal Weather Stations






























Interactive Weather Map
Tropical Storm Tracking
New forecast layout! Learn more

10-Day Weather Forecast

Advertisements
Track Severe Weather on mobile